Chamberlain, SD (57325)

3:20 AM CST on February 27, 2017 (GMT -0600)
Chamberlain | | Change Station

Elev 1739 ft 43.80 °N, 99.32 °W | Updated 5 minutes ago

Clear
Clear
24 °F
Feels Like 24 °F
N
0
Wind Variable Wind from North

Today
High -- | Low -- °F
--% Chance of Precip.
Yesterday
High -- | Low -- °F
Precip. -- in
Pressure 29.84 in
Visibility 10.0 miles
Clouds Clear
Dew Point 16 °F
Humidity 75%
Rainfall 0.00 in
Snow Depth Not available.
7:16 AM 6:23 PM
New Moon, 1% visible
METAR K9V9 270915Z AUTO 00000KT 10SM CLR M05/M09 A2984 RMK AO2 T10471086
Pressure 29.84 in
Visibility 10.0 miles
Clouds Clear
Dew Point 16 °F
Humidity 75%
Rainfall 0.00 in
Snow Depth Not available.
7:16 AM 6:23 PM
New Moon, 1% visible
METAR K9V9 270915Z AUTO 00000KT 10SM CLR M05/M09 A2984 RMK AO2 T10471086

Get Your Daily Forecast Email!

Thanks for signing up!

Be on the lookout for a verification email in your inbox.

You'll start receiving the daily forecast at 8 AM.

×

10-Day Weather Forecast

Almanac

Astronomy

Feb. 27, 2017 Rise Set
Actual Time
Civil Twilight
Nautical Twilight
Astronomical Twilight
Moon
Length of Visible Light
Length of Day
Tomorrow will be .
, % of the Moon is Illuminated

Today's Extremes

State Highs State Lows

Community

WunderPhotos

Upload Photos

1,962,540 photos uploaded!

WunderBlog® & News

Nearby

Air Quality

  Air Quality AQ Index Pollutant
Not available.

Snow Depth

Station Depth Elevation

Earthquake Activity

City Distance Mag. Time & Date
Minimum magnitude displayed is 2.5.

Coastal Water Temperatures

Place Temperature

Stations

Nearby Weather Stations

Station Location Temp. Windchill Dew Point Humidity Wind Precip. Elev Updated Type
                   

Watches & Warnings

There are currently no watches in effect.